sensor_id;sensor_type;location;lat;lon;timestamp;P1;durP1;ratioP1;P2;durP2;ratioP2
25351;SDS011;13304;48.464;8.712;2023-12-20T00:00:37;1.48;;;0.70;;
25351;SDS011;13304;48.464;8.712;2023-12-20T00:03:03;0.75;;;0.60;;
25351;SDS011;13304;48.464;8.712;2023-12-20T00:05:29;0.40;;;0.40;;
25351;SDS011;13304;48.464;8.712;2023-12-20T00:07:57;0.75;;;0.50;;
25351;SDS011;13304;48.464;8.712;2023-12-20T00:10:23;4.22;;;0.82;;
25351;SDS011;13304;48.464;8.712;2023-12-20T00:12:48;1.15;;;0.70;;
25351;SDS011;13304;48.464;8.712;2023-12-20T00:15:14;0.90;;;0.63;;
25351;SDS011;13304;48.464;8.712;2023-12-20T00:17:39;1.17;;;0.50;;
25351;SDS011;13304;48.464;8.712;2023-12-20T00:20:05;0.95;;;0.63;;
25351;SDS011;13304;48.464;8.712;2023-12-20T00:22:31;1.80;;;0.93;;
25351;SDS011;13304;48.464;8.712;2023-12-20T00:24:57;0.93;;;0.60;;
25351;SDS011;13304;48.464;8.712;2023-12-20T00:27:23;0.90;;;0.70;;
25351;SDS011;13304;48.464;8.712;2023-12-20T00:29:48;0.50;;;0.50;;
25351;SDS011;13304;48.464;8.712;2023-12-20T00:32:15;0.77;;;0.60;;
25351;SDS011;13304;48.464;8.712;2023-12-20T00:34:41;1.42;;;0.60;;
25351;SDS011;13304;48.464;8.712;2023-12-20T00:37:08;1.52;;;0.70;;
25351;SDS011;13304;48.464;8.712;2023-12-20T00:39:33;0.60;;;0.52;;
25351;SDS011;13304;48.464;8.712;2023-12-20T00:41:59;1.00;;;0.63;;
25351;SDS011;13304;48.464;8.712;2023-12-20T00:44:25;0.60;;;0.50;;
25351;SDS011;13304;48.464;8.712;2023-12-20T00:46:51;1.33;;;0.80;;
25351;SDS011;13304;48.464;8.712;2023-12-20T00:49:17;1.05;;;0.60;;
25351;SDS011;13304;48.464;8.712;2023-12-20T00:51:42;0.75;;;0.60;;
25351;SDS011;13304;48.464;8.712;2023-12-20T00:54:08;0.80;;;0.60;;
25351;SDS011;13304;48.464;8.712;2023-12-20T00:56:34;1.00;;;0.60;;
25351;SDS011;13304;48.464;8.712;2023-12-20T00:59:00;1.08;;;0.80;;
25351;SDS011;13304;48.464;8.712;2023-12-20T01:01:26;1.48;;;0.75;;
25351;SDS011;13304;48.464;8.712;2023-12-20T01:03:51;0.80;;;0.70;;
25351;SDS011;13304;48.464;8.712;2023-12-20T01:06:17;0.90;;;0.80;;
25351;SDS011;13304;48.464;8.712;2023-12-20T01:08:43;0.73;;;0.60;;
25351;SDS011;13304;48.464;8.712;2023-12-20T01:11:09;1.48;;;0.70;;
25351;SDS011;13304;48.464;8.712;2023-12-20T01:13:34;1.25;;;0.70;;
25351;SDS011;13304;48.464;8.712;2023-12-20T01:16:00;1.80;;;0.70;;
25351;SDS011;13304;48.464;8.712;2023-12-20T01:18:26;0.90;;;0.60;;
25351;SDS011;13304;48.464;8.712;2023-12-20T01:20:52;0.75;;;0.60;;
25351;SDS011;13304;48.464;8.712;2023-12-20T01:23:17;3.90;;;0.50;;
25351;SDS011;13304;48.464;8.712;2023-12-20T01:25:43;2.03;;;0.55;;
25351;SDS011;13304;48.464;8.712;2023-12-20T01:28:09;0.93;;;0.70;;
25351;SDS011;13304;48.464;8.712;2023-12-20T01:30:37;0.50;;;0.40;;
25351;SDS011;13304;48.464;8.712;2023-12-20T01:33:02;0.85;;;0.52;;
25351;SDS011;13304;48.464;8.712;2023-12-20T01:35:28;0.55;;;0.50;;
25351;SDS011;13304;48.464;8.712;2023-12-20T01:37:54;1.02;;;0.55;;
25351;SDS011;13304;48.464;8.712;2023-12-20T01:40:21;0.55;;;0.40;;
25351;SDS011;13304;48.464;8.712;2023-12-20T01:42:47;1.15;;;0.50;;
25351;SDS011;13304;48.464;8.712;2023-12-20T01:45:23;0.50;;;0.40;;
25351;SDS011;13304;48.464;8.712;2023-12-20T01:47:49;0.65;;;0.50;;
25351;SDS011;13304;48.464;8.712;2023-12-20T01:50:15;0.38;;;0.38;;
25351;SDS011;13304;48.464;8.712;2023-12-20T01:52:41;0.50;;;0.32;;
25351;SDS011;13304;48.464;8.712;2023-12-20T01:55:08;0.30;;;0.30;;
25351;SDS011;13304;48.464;8.712;2023-12-20T01:57:38;0.30;;;0.30;;
25351;SDS011;13304;48.464;8.712;2023-12-20T02:00:06;0.60;;;0.40;;
25351;SDS011;13304;48.464;8.712;2023-12-20T02:02:34;0.28;;;0.28;;
25351;SDS011;13304;48.464;8.712;2023-12-20T02:05:03;0.47;;;0.43;;
25351;SDS011;13304;48.464;8.712;2023-12-20T02:07:30;0.30;;;0.30;;
25351;SDS011;13304;48.464;8.712;2023-12-20T02:09:56;0.22;;;0.22;;
25351;SDS011;13304;48.464;8.712;2023-12-20T02:12:22;0.20;;;0.20;;
25351;SDS011;13304;48.464;8.712;2023-12-20T02:14:48;0.30;;;0.30;;
25351;SDS011;13304;48.464;8.712;2023-12-20T02:17:15;0.28;;;0.28;;
25351;SDS011;13304;48.464;8.712;2023-12-20T02:19:41;0.35;;;0.35;;
25351;SDS011;13304;48.464;8.712;2023-12-20T02:22:08;0.30;;;0.30;;
25351;SDS011;13304;48.464;8.712;2023-12-20T02:24:37;0.20;;;0.20;;
25351;SDS011;13304;48.464;8.712;2023-12-20T02:27:03;6.78;;;0.45;;
25351;SDS011;13304;48.464;8.712;2023-12-20T02:29:33;0.30;;;0.30;;
25351;SDS011;13304;48.464;8.712;2023-12-20T02:31:59;0.20;;;0.20;;
25351;SDS011;13304;48.464;8.712;2023-12-20T02:34:25;0.47;;;0.30;;
25351;SDS011;13304;48.464;8.712;2023-12-20T02:36:50;2.25;;;0.40;;
25351;SDS011;13304;48.464;8.712;2023-12-20T02:39:16;0.45;;;0.30;;
25351;SDS011;13304;48.464;8.712;2023-12-20T02:41:43;0.30;;;0.30;;
25351;SDS011;13304;48.464;8.712;2023-12-20T02:44:08;0.20;;;0.20;;
25351;SDS011;13304;48.464;8.712;2023-12-20T02:46:34;0.93;;;0.30;;
25351;SDS011;13304;48.464;8.712;2023-12-20T02:49:00;0.20;;;0.20;;
25351;SDS011;13304;48.464;8.712;2023-12-20T02:51:26;0.30;;;0.20;;
25351;SDS011;13304;48.464;8.712;2023-12-20T02:53:51;0.20;;;0.20;;
25351;SDS011;13304;48.464;8.712;2023-12-20T02:56:17;1.65;;;0.20;;
25351;SDS011;13304;48.464;8.712;2023-12-20T02:58:42;0.20;;;0.20;;
25351;SDS011;13304;48.464;8.712;2023-12-20T03:01:08;0.30;;;0.20;;
25351;SDS011;13304;48.464;8.712;2023-12-20T03:03:34;0.30;;;0.20;;
25351;SDS011;13304;48.464;8.712;2023-12-20T03:05:59;0.30;;;0.20;;
25351;SDS011;13304;48.464;8.712;2023-12-20T03:08:25;0.25;;;0.20;;
25351;SDS011;13304;48.464;8.712;2023-12-20T03:10:51;0.10;;;0.10;;
25351;SDS011;13304;48.464;8.712;2023-12-20T03:13:16;1.23;;;0.20;;
25351;SDS011;13304;48.464;8.712;2023-12-20T03:15:42;0.20;;;0.20;;
25351;SDS011;13304;48.464;8.712;2023-12-20T03:18:08;0.63;;;0.30;;
25351;SDS011;13304;48.464;8.712;2023-12-20T03:20:33;0.20;;;0.20;;
25351;SDS011;13304;48.464;8.712;2023-12-20T03:23:02;0.57;;;0.20;;
25351;SDS011;13304;48.464;8.712;2023-12-20T03:25:28;0.20;;;0.20;;
25351;SDS011;13304;48.464;8.712;2023-12-20T03:27:54;0.63;;;0.20;;
25351;SDS011;13304;48.464;8.712;2023-12-20T03:30:19;2.80;;;0.63;;
25351;SDS011;13304;48.464;8.712;2023-12-20T03:32:45;0.22;;;0.20;;
25351;SDS011;13304;48.464;8.712;2023-12-20T03:35:11;0.80;;;0.22;;
25351;SDS011;13304;48.464;8.712;2023-12-20T03:37:37;0.20;;;0.20;;
25351;SDS011;13304;48.464;8.712;2023-12-20T03:40:03;0.57;;;0.20;;
25351;SDS011;13304;48.464;8.712;2023-12-20T03:42:29;0.77;;;0.38;;
25351;SDS011;13304;48.464;8.712;2023-12-20T03:44:54;0.88;;;0.30;;
25351;SDS011;13304;48.464;8.712;2023-12-20T03:47:20;0.30;;;0.20;;
25351;SDS011;13304;48.464;8.712;2023-12-20T03:49:46;0.20;;;0.20;;
25351;SDS011;13304;48.464;8.712;2023-12-20T03:52:11;0.30;;;0.30;;
25351;SDS011;13304;48.464;8.712;2023-12-20T03:54:37;0.75;;;0.50;;
25351;SDS011;13304;48.464;8.712;2023-12-20T03:57:03;0.30;;;0.30;;
25351;SDS011;13304;48.464;8.712;2023-12-20T03:59:29;0.30;;;0.25;;
25351;SDS011;13304;48.464;8.712;2023-12-20T04:01:55;0.20;;;0.20;;
25351;SDS011;13304;48.464;8.712;2023-12-20T04:04:21;1.40;;;0.30;;
25351;SDS011;13304;48.464;8.712;2023-12-20T04:06:46;0.20;;;0.20;;
25351;SDS011;13304;48.464;8.712;2023-12-20T04:09:12;0.30;;;0.30;;
25351;SDS011;13304;48.464;8.712;2023-12-20T04:11:38;0.40;;;0.30;;
25351;SDS011;13304;48.464;8.712;2023-12-20T04:14:03;0.20;;;0.20;;
25351;SDS011;13304;48.464;8.712;2023-12-20T04:16:32;0.20;;;0.20;;
25351;SDS011;13304;48.464;8.712;2023-12-20T04:18:58;0.30;;;0.30;;
25351;SDS011;13304;48.464;8.712;2023-12-20T04:21:23;1.90;;;0.30;;
25351;SDS011;13304;48.464;8.712;2023-12-20T04:23:49;1.23;;;0.40;;
25351;SDS011;13304;48.464;8.712;2023-12-20T04:26:15;1.60;;;0.50;;
25351;SDS011;13304;48.464;8.712;2023-12-20T04:28:40;2.30;;;0.30;;
25351;SDS011;13304;48.464;8.712;2023-12-20T04:31:07;0.30;;;0.30;;
25351;SDS011;13304;48.464;8.712;2023-12-20T04:33:32;0.60;;;0.30;;
25351;SDS011;13304;48.464;8.712;2023-12-20T04:35:58;1.15;;;0.22;;
25351;SDS011;13304;48.464;8.712;2023-12-20T04:38:25;0.20;;;0.20;;
25351;SDS011;13304;48.464;8.712;2023-12-20T04:40:50;0.30;;;0.28;;
25351;SDS011;13304;48.464;8.712;2023-12-20T04:43:16;0.22;;;0.22;;
25351;SDS011;13304;48.464;8.712;2023-12-20T04:45:42;0.20;;;0.20;;
25351;SDS011;13304;48.464;8.712;2023-12-20T04:48:07;0.35;;;0.20;;
25351;SDS011;13304;48.464;8.712;2023-12-20T04:50:33;0.20;;;0.20;;
25351;SDS011;13304;48.464;8.712;2023-12-20T04:52:59;0.20;;;0.20;;
25351;SDS011;13304;48.464;8.712;2023-12-20T04:55:24;0.20;;;0.20;;
25351;SDS011;13304;48.464;8.712;2023-12-20T04:57:50;0.20;;;0.20;;
25351;SDS011;13304;48.464;8.712;2023-12-20T05:00:16;0.75;;;0.20;;
25351;SDS011;13304;48.464;8.712;2023-12-20T05:02:41;0.93;;;0.20;;
25351;SDS011;13304;48.464;8.712;2023-12-20T05:05:07;0.30;;;0.20;;
25351;SDS011;13304;48.464;8.712;2023-12-20T05:07:33;0.20;;;0.20;;
25351;SDS011;13304;48.464;8.712;2023-12-20T05:09:59;0.20;;;0.20;;
25351;SDS011;13304;48.464;8.712;2023-12-20T05:12:24;0.52;;;0.20;;
25351;SDS011;13304;48.464;8.712;2023-12-20T05:14:51;0.20;;;0.20;;
25351;SDS011;13304;48.464;8.712;2023-12-20T05:17:17;0.20;;;0.20;;
25351;SDS011;13304;48.464;8.712;2023-12-20T05:19:43;0.65;;;0.40;;
25351;SDS011;13304;48.464;8.712;2023-12-20T05:22:09;0.40;;;0.30;;
25351;SDS011;13304;48.464;8.712;2023-12-20T05:24:34;0.20;;;0.20;;
25351;SDS011;13304;48.464;8.712;2023-12-20T05:27:00;0.30;;;0.30;;
25351;SDS011;13304;48.464;8.712;2023-12-20T05:29:26;0.25;;;0.25;;
25351;SDS011;13304;48.464;8.712;2023-12-20T05:31:51;0.60;;;0.50;;
25351;SDS011;13304;48.464;8.712;2023-12-20T05:34:17;1.35;;;0.60;;
25351;SDS011;13304;48.464;8.712;2023-12-20T05:36:42;0.93;;;0.60;;
25351;SDS011;13304;48.464;8.712;2023-12-20T05:39:08;1.75;;;0.70;;
25351;SDS011;13304;48.464;8.712;2023-12-20T05:41:34;1.75;;;0.50;;
25351;SDS011;13304;48.464;8.712;2023-12-20T05:43:59;0.93;;;0.40;;
25351;SDS011;13304;48.464;8.712;2023-12-20T05:46:25;0.77;;;0.40;;
25351;SDS011;13304;48.464;8.712;2023-12-20T05:48:51;0.55;;;0.50;;
25351;SDS011;13304;48.464;8.712;2023-12-20T05:51:17;2.47;;;0.40;;
25351;SDS011;13304;48.464;8.712;2023-12-20T05:53:43;0.30;;;0.20;;
25351;SDS011;13304;48.464;8.712;2023-12-20T05:56:09;0.20;;;0.20;;
25351;SDS011;13304;48.464;8.712;2023-12-20T05:58:35;0.30;;;0.30;;
25351;SDS011;13304;48.464;8.712;2023-12-20T06:01:04;1.02;;;0.40;;
25351;SDS011;13304;48.464;8.712;2023-12-20T06:03:30;0.63;;;0.20;;
25351;SDS011;13304;48.464;8.712;2023-12-20T06:05:56;0.20;;;0.20;;
25351;SDS011;13304;48.464;8.712;2023-12-20T06:08:25;0.45;;;0.30;;
25351;SDS011;13304;48.464;8.712;2023-12-20T06:10:50;0.28;;;0.25;;
25351;SDS011;13304;48.464;8.712;2023-12-20T06:13:16;0.32;;;0.30;;
25351;SDS011;13304;48.464;8.712;2023-12-20T06:15:42;0.20;;;0.20;;
25351;SDS011;13304;48.464;8.712;2023-12-20T06:18:07;0.20;;;0.20;;
25351;SDS011;13304;48.464;8.712;2023-12-20T06:20:33;0.55;;;0.35;;
25351;SDS011;13304;48.464;8.712;2023-12-20T06:22:59;2.50;;;0.30;;
25351;SDS011;13304;48.464;8.712;2023-12-20T06:25:25;0.55;;;0.30;;
25351;SDS011;13304;48.464;8.712;2023-12-20T06:27:50;0.57;;;0.20;;
25351;SDS011;13304;48.464;8.712;2023-12-20T06:30:16;0.22;;;0.20;;
25351;SDS011;13304;48.464;8.712;2023-12-20T06:32:42;0.60;;;0.30;;
25351;SDS011;13304;48.464;8.712;2023-12-20T06:35:10;0.43;;;0.28;;
25351;SDS011;13304;48.464;8.712;2023-12-20T06:37:36;0.80;;;0.63;;
25351;SDS011;13304;48.464;8.712;2023-12-20T06:40:02;0.30;;;0.30;;
25351;SDS011;13304;48.464;8.712;2023-12-20T06:42:28;0.73;;;0.40;;
25351;SDS011;13304;48.464;8.712;2023-12-20T06:44:53;13.55;;;7.32;;
25351;SDS011;13304;48.464;8.712;2023-12-20T06:47:19;17.02;;;10.73;;
25351;SDS011;13304;48.464;8.712;2023-12-20T06:49:44;21.52;;;13.13;;
25351;SDS011;13304;48.464;8.712;2023-12-20T06:52:10;6.07;;;4.95;;
25351;SDS011;13304;48.464;8.712;2023-12-20T06:54:36;2.05;;;1.40;;
25351;SDS011;13304;48.464;8.712;2023-12-20T06:57:01;1.63;;;1.20;;
25351;SDS011;13304;48.464;8.712;2023-12-20T06:59:29;0.80;;;0.70;;
25351;SDS011;13304;48.464;8.712;2023-12-20T07:01:54;0.88;;;0.55;;
25351;SDS011;13304;48.464;8.712;2023-12-20T07:04:20;0.95;;;0.60;;
25351;SDS011;13304;48.464;8.712;2023-12-20T07:06:50;1.00;;;0.70;;
25351;SDS011;13304;48.464;8.712;2023-12-20T07:09:22;1.23;;;0.90;;
25351;SDS011;13304;48.464;8.712;2023-12-20T07:11:48;0.77;;;0.60;;
25351;SDS011;13304;48.464;8.712;2023-12-20T07:14:13;0.70;;;0.45;;
25351;SDS011;13304;48.464;8.712;2023-12-20T07:16:39;1.02;;;0.60;;
25351;SDS011;13304;48.464;8.712;2023-12-20T07:19:05;0.70;;;0.60;;
25351;SDS011;13304;48.464;8.712;2023-12-20T07:21:31;0.70;;;0.60;;
25351;SDS011;13304;48.464;8.712;2023-12-20T07:23:57;5.78;;;0.70;;
25351;SDS011;13304;48.464;8.712;2023-12-20T07:26:22;2.45;;;1.05;;
25351;SDS011;13304;48.464;8.712;2023-12-20T07:28:48;1.60;;;1.10;;
25351;SDS011;13304;48.464;8.712;2023-12-20T07:31:18;1.80;;;0.90;;
25351;SDS011;13304;48.464;8.712;2023-12-20T07:33:43;0.93;;;0.70;;
25351;SDS011;13304;48.464;8.712;2023-12-20T07:36:09;2.85;;;0.63;;
25351;SDS011;13304;48.464;8.712;2023-12-20T07:38:35;1.38;;;0.90;;
25351;SDS011;13304;48.464;8.712;2023-12-20T07:41:01;2.83;;;1.52;;
25351;SDS011;13304;48.464;8.712;2023-12-20T07:43:26;2.50;;;1.10;;
25351;SDS011;13304;48.464;8.712;2023-12-20T07:45:52;1.55;;;1.00;;
25351;SDS011;13304;48.464;8.712;2023-12-20T07:48:17;2.00;;;0.60;;
25351;SDS011;13304;48.464;8.712;2023-12-20T07:50:43;2.20;;;1.05;;
25351;SDS011;13304;48.464;8.712;2023-12-20T07:53:09;1.92;;;0.90;;
25351;SDS011;13304;48.464;8.712;2023-12-20T07:55:34;1.38;;;0.70;;
25351;SDS011;13304;48.464;8.712;2023-12-20T07:58:00;1.17;;;0.50;;
25351;SDS011;13304;48.464;8.712;2023-12-20T08:00:26;1.35;;;0.80;;
25351;SDS011;13304;48.464;8.712;2023-12-20T08:02:52;2.08;;;1.00;;
25351;SDS011;13304;48.464;8.712;2023-12-20T08:05:18;1.52;;;0.93;;
25351;SDS011;13304;48.464;8.712;2023-12-20T08:07:43;1.65;;;1.00;;
25351;SDS011;13304;48.464;8.712;2023-12-20T08:10:09;0.75;;;0.70;;
25351;SDS011;13304;48.464;8.712;2023-12-20T08:12:35;1.13;;;0.93;;
25351;SDS011;13304;48.464;8.712;2023-12-20T08:15:01;2.38;;;1.00;;
25351;SDS011;13304;48.464;8.712;2023-12-20T08:17:27;1.38;;;1.20;;
25351;SDS011;13304;48.464;8.712;2023-12-20T08:19:52;0.70;;;0.60;;
25351;SDS011;13304;48.464;8.712;2023-12-20T08:22:18;2.13;;;0.50;;
25351;SDS011;13304;48.464;8.712;2023-12-20T08:24:44;4.95;;;0.70;;
25351;SDS011;13304;48.464;8.712;2023-12-20T08:27:09;0.32;;;0.32;;
25351;SDS011;13304;48.464;8.712;2023-12-20T08:29:35;0.30;;;0.30;;
25351;SDS011;13304;48.464;8.712;2023-12-20T08:32:01;0.93;;;0.60;;
25351;SDS011;13304;48.464;8.712;2023-12-20T08:34:26;1.80;;;0.80;;
25351;SDS011;13304;48.464;8.712;2023-12-20T08:36:52;2.67;;;1.00;;
25351;SDS011;13304;48.464;8.712;2023-12-20T08:39:18;1.50;;;1.10;;
25351;SDS011;13304;48.464;8.712;2023-12-20T08:41:44;2.03;;;0.98;;
25351;SDS011;13304;48.464;8.712;2023-12-20T08:44:09;1.27;;;0.77;;
25351;SDS011;13304;48.464;8.712;2023-12-20T08:46:35;2.35;;;0.70;;
25351;SDS011;13304;48.464;8.712;2023-12-20T08:49:01;4.97;;;1.77;;
25351;SDS011;13304;48.464;8.712;2023-12-20T08:51:27;4.07;;;2.30;;
25351;SDS011;13304;48.464;8.712;2023-12-20T08:53:53;1.95;;;1.00;;
25351;SDS011;13304;48.464;8.712;2023-12-20T08:56:19;0.80;;;0.60;;
25351;SDS011;13304;48.464;8.712;2023-12-20T08:58:48;1.30;;;0.70;;
25351;SDS011;13304;48.464;8.712;2023-12-20T09:01:14;1.02;;;0.50;;
25351;SDS011;13304;48.464;8.712;2023-12-20T09:03:40;1.95;;;0.57;;
25351;SDS011;13304;48.464;8.712;2023-12-20T09:06:06;1.95;;;0.57;;
25351;SDS011;13304;48.464;8.712;2023-12-20T09:08:31;3.45;;;0.85;;
25351;SDS011;13304;48.464;8.712;2023-12-20T09:10:58;0.77;;;0.50;;
25351;SDS011;13304;48.464;8.712;2023-12-20T09:13:24;1.50;;;0.60;;
25351;SDS011;13304;48.464;8.712;2023-12-20T09:15:56;5.25;;;1.00;;
25351;SDS011;13304;48.464;8.712;2023-12-20T09:18:22;0.90;;;0.80;;
25351;SDS011;13304;48.464;8.712;2023-12-20T09:20:47;1.73;;;1.25;;
25351;SDS011;13304;48.464;8.712;2023-12-20T09:23:13;2.22;;;0.90;;
25351;SDS011;13304;48.464;8.712;2023-12-20T09:25:38;4.22;;;1.10;;
25351;SDS011;13304;48.464;8.712;2023-12-20T09:28:04;3.33;;;1.15;;
25351;SDS011;13304;48.464;8.712;2023-12-20T09:30:30;3.90;;;1.98;;
25351;SDS011;13304;48.464;8.712;2023-12-20T09:32:56;4.10;;;1.30;;
25351;SDS011;13304;48.464;8.712;2023-12-20T09:35:22;4.80;;;1.48;;
25351;SDS011;13304;48.464;8.712;2023-12-20T09:37:48;3.42;;;1.10;;
25351;SDS011;13304;48.464;8.712;2023-12-20T09:40:14;3.72;;;0.98;;
25351;SDS011;13304;48.464;8.712;2023-12-20T09:45:17;4.90;;;1.00;;
25351;SDS011;13304;48.464;8.712;2023-12-20T09:47:46;3.45;;;1.05;;
25351;SDS011;13304;48.464;8.712;2023-12-20T09:50:12;4.00;;;1.38;;
25351;SDS011;13304;48.464;8.712;2023-12-20T09:52:38;5.10;;;1.15;;
25351;SDS011;13304;48.464;8.712;2023-12-20T09:55:04;2.80;;;1.10;;
25351;SDS011;13304;48.464;8.712;2023-12-20T09:57:32;4.78;;;1.27;;
25351;SDS011;13304;48.464;8.712;2023-12-20T09:59:58;6.70;;;1.67;;
25351;SDS011;13304;48.464;8.712;2023-12-20T10:02:25;5.55;;;1.80;;
25351;SDS011;13304;48.464;8.712;2023-12-20T10:04:52;5.95;;;1.70;;
25351;SDS011;13304;48.464;8.712;2023-12-20T10:07:19;5.63;;;1.92;;
25351;SDS011;13304;48.464;8.712;2023-12-20T10:09:45;7.03;;;1.65;;
25351;SDS011;13304;48.464;8.712;2023-12-20T10:12:12;10.00;;;1.92;;
25351;SDS011;13304;48.464;8.712;2023-12-20T10:14:38;5.75;;;1.60;;
25351;SDS011;13304;48.464;8.712;2023-12-20T10:17:04;6.72;;;1.52;;
25351;SDS011;13304;48.464;8.712;2023-12-20T10:19:31;3.40;;;1.48;;
25351;SDS011;13304;48.464;8.712;2023-12-20T10:21:57;4.63;;;1.40;;
25351;SDS011;13304;48.464;8.712;2023-12-20T10:24:24;6.93;;;1.50;;
25351;SDS011;13304;48.464;8.712;2023-12-20T10:27:00;8.35;;;1.75;;
25351;SDS011;13304;48.464;8.712;2023-12-20T10:29:35;6.43;;;1.83;;
25351;SDS011;13304;48.464;8.712;2023-12-20T10:34:49;5.88;;;1.50;;
25351;SDS011;13304;48.464;8.712;2023-12-20T10:37:15;7.20;;;1.40;;
25351;SDS011;13304;48.464;8.712;2023-12-20T10:39:41;5.47;;;1.25;;
25351;SDS011;13304;48.464;8.712;2023-12-20T10:42:08;1.23;;;0.93;;
25351;SDS011;13304;48.464;8.712;2023-12-20T10:44:36;6.18;;;1.52;;
25351;SDS011;13304;48.464;8.712;2023-12-20T10:47:02;4.40;;;1.30;;
25351;SDS011;13304;48.464;8.712;2023-12-20T10:49:29;3.22;;;1.20;;
25351;SDS011;13304;48.464;8.712;2023-12-20T10:51:56;4.55;;;1.20;;
25351;SDS011;13304;48.464;8.712;2023-12-20T10:54:24;4.55;;;1.48;;
25351;SDS011;13304;48.464;8.712;2023-12-20T10:56:50;4.03;;;1.20;;
25351;SDS011;13304;48.464;8.712;2023-12-20T10:59:18;4.15;;;1.45;;
25351;SDS011;13304;48.464;8.712;2023-12-20T11:01:45;6.63;;;1.70;;
25351;SDS011;13304;48.464;8.712;2023-12-20T11:04:15;8.20;;;1.70;;
25351;SDS011;13304;48.464;8.712;2023-12-20T11:09:14;4.07;;;1.65;;
25351;SDS011;13304;48.464;8.712;2023-12-20T11:12:01;7.38;;;1.60;;
25351;SDS011;13304;48.464;8.712;2023-12-20T11:14:39;4.38;;;1.55;;
25351;SDS011;13304;48.464;8.712;2023-12-20T11:17:09;8.38;;;1.63;;
25351;SDS011;13304;48.464;8.712;2023-12-20T11:22:22;7.30;;;1.77;;
25351;SDS011;13304;48.464;8.712;2023-12-20T11:24:50;6.50;;;1.58;;
25351;SDS011;13304;48.464;8.712;2023-12-20T11:27:17;7.22;;;1.83;;
25351;SDS011;13304;48.464;8.712;2023-12-20T11:29:50;8.35;;;1.80;;
25351;SDS011;13304;48.464;8.712;2023-12-20T11:34:56;5.97;;;1.75;;
25351;SDS011;13304;48.464;8.712;2023-12-20T11:37:36;3.38;;;1.70;;
25351;SDS011;13304;48.464;8.712;2023-12-20T11:40:05;3.88;;;1.10;;
25351;SDS011;13304;48.464;8.712;2023-12-20T11:42:40;5.30;;;1.23;;
25351;SDS011;13304;48.464;8.712;2023-12-20T11:45:14;6.97;;;1.77;;
25351;SDS011;13304;48.464;8.712;2023-12-20T11:47:42;5.22;;;1.50;;
25351;SDS011;13304;48.464;8.712;2023-12-20T11:50:10;5.77;;;1.60;;
25351;SDS011;13304;48.464;8.712;2023-12-20T11:52:36;6.57;;;1.50;;
25351;SDS011;13304;48.464;8.712;2023-12-20T11:55:02;6.05;;;1.55;;
25351;SDS011;13304;48.464;8.712;2023-12-20T11:57:29;11.15;;;1.60;;
25351;SDS011;13304;48.464;8.712;2023-12-20T11:59:55;8.43;;;1.55;;
25351;SDS011;13304;48.464;8.712;2023-12-20T12:02:21;8.18;;;1.55;;
25351;SDS011;13304;48.464;8.712;2023-12-20T12:04:48;6.53;;;1.33;;
25351;SDS011;13304;48.464;8.712;2023-12-20T12:07:14;10.30;;;1.40;;
25351;SDS011;13304;48.464;8.712;2023-12-20T12:09:39;8.13;;;1.70;;
25351;SDS011;13304;48.464;8.712;2023-12-20T12:12:05;9.30;;;1.80;;
25351;SDS011;13304;48.464;8.712;2023-12-20T12:14:32;6.88;;;1.30;;
25351;SDS011;13304;48.464;8.712;2023-12-20T12:16:58;7.18;;;1.80;;
25351;SDS011;13304;48.464;8.712;2023-12-20T12:19:24;7.97;;;1.60;;
25351;SDS011;13304;48.464;8.712;2023-12-20T12:21:51;6.47;;;1.33;;
25351;SDS011;13304;48.464;8.712;2023-12-20T12:24:29;9.90;;;1.52;;
25351;SDS011;13304;48.464;8.712;2023-12-20T12:26:56;6.07;;;1.60;;
25351;SDS011;13304;48.464;8.712;2023-12-20T12:29:23;10.95;;;1.95;;
25351;SDS011;13304;48.464;8.712;2023-12-20T12:31:49;6.72;;;1.55;;
25351;SDS011;13304;48.464;8.712;2023-12-20T12:34:16;6.15;;;1.63;;
25351;SDS011;13304;48.464;8.712;2023-12-20T12:36:43;8.65;;;1.65;;
25351;SDS011;13304;48.464;8.712;2023-12-20T12:39:09;11.52;;;1.85;;
25351;SDS011;13304;48.464;8.712;2023-12-20T12:41:37;5.15;;;1.70;;
25351;SDS011;13304;48.464;8.712;2023-12-20T12:44:02;5.35;;;1.45;;
25351;SDS011;13304;48.464;8.712;2023-12-20T12:46:28;6.30;;;1.73;;
25351;SDS011;13304;48.464;8.712;2023-12-20T12:48:54;12.60;;;1.75;;
25351;SDS011;13304;48.464;8.712;2023-12-20T12:51:20;7.97;;;1.27;;
25351;SDS011;13304;48.464;8.712;2023-12-20T12:53:46;5.47;;;1.40;;
25351;SDS011;13304;48.464;8.712;2023-12-20T12:56:12;5.85;;;1.20;;
25351;SDS011;13304;48.464;8.712;2023-12-20T12:58:39;7.60;;;1.35;;
25351;SDS011;13304;48.464;8.712;2023-12-20T13:01:04;10.02;;;1.45;;
25351;SDS011;13304;48.464;8.712;2023-12-20T13:03:30;3.80;;;1.02;;
25351;SDS011;13304;48.464;8.712;2023-12-20T13:05:56;10.32;;;1.83;;
25351;SDS011;13304;48.464;8.712;2023-12-20T13:08:21;7.85;;;1.67;;
25351;SDS011;13304;48.464;8.712;2023-12-20T13:10:47;8.25;;;1.33;;
25351;SDS011;13304;48.464;8.712;2023-12-20T13:13:13;8.32;;;1.55;;
25351;SDS011;13304;48.464;8.712;2023-12-20T13:15:38;7.13;;;1.48;;
25351;SDS011;13304;48.464;8.712;2023-12-20T13:18:05;6.18;;;1.13;;
25351;SDS011;13304;48.464;8.712;2023-12-20T13:20:31;6.03;;;1.58;;
25351;SDS011;13304;48.464;8.712;2023-12-20T13:22:58;6.65;;;1.38;;
25351;SDS011;13304;48.464;8.712;2023-12-20T13:25:24;6.75;;;1.35;;
25351;SDS011;13304;48.464;8.712;2023-12-20T13:27:50;6.47;;;1.30;;
25351;SDS011;13304;48.464;8.712;2023-12-20T13:30:18;4.53;;;1.25;;
25351;SDS011;13304;48.464;8.712;2023-12-20T13:32:44;6.28;;;1.13;;
25351;SDS011;13304;48.464;8.712;2023-12-20T13:35:10;6.07;;;1.63;;
25351;SDS011;13304;48.464;8.712;2023-12-20T13:37:35;6.80;;;1.65;;
25351;SDS011;13304;48.464;8.712;2023-12-20T13:40:01;5.00;;;1.25;;
25351;SDS011;13304;48.464;8.712;2023-12-20T13:42:28;7.00;;;1.65;;
25351;SDS011;13304;48.464;8.712;2023-12-20T13:44:54;11.40;;;1.90;;
25351;SDS011;13304;48.464;8.712;2023-12-20T13:47:19;8.05;;;1.52;;
25351;SDS011;13304;48.464;8.712;2023-12-20T13:49:45;8.52;;;1.27;;
25351;SDS011;13304;48.464;8.712;2023-12-20T13:52:11;7.72;;;1.35;;
25351;SDS011;13304;48.464;8.712;2023-12-20T13:54:37;8.18;;;1.65;;
25351;SDS011;13304;48.464;8.712;2023-12-20T13:57:03;8.73;;;1.40;;
25351;SDS011;13304;48.464;8.712;2023-12-20T13:59:29;5.80;;;1.20;;
25351;SDS011;13304;48.464;8.712;2023-12-20T14:01:55;5.22;;;1.27;;
25351;SDS011;13304;48.464;8.712;2023-12-20T14:04:22;5.18;;;1.40;;
25351;SDS011;13304;48.464;8.712;2023-12-20T14:06:47;5.53;;;1.30;;
25351;SDS011;13304;48.464;8.712;2023-12-20T14:09:13;6.30;;;1.77;;
25351;SDS011;13304;48.464;8.712;2023-12-20T14:11:39;4.15;;;1.38;;
25351;SDS011;13304;48.464;8.712;2023-12-20T14:14:09;4.72;;;1.52;;
25351;SDS011;13304;48.464;8.712;2023-12-20T14:16:35;8.48;;;1.75;;
25351;SDS011;13304;48.464;8.712;2023-12-20T14:19:01;8.32;;;1.67;;
25351;SDS011;13304;48.464;8.712;2023-12-20T14:21:28;7.90;;;1.83;;
25351;SDS011;13304;48.464;8.712;2023-12-20T14:23:54;8.18;;;1.55;;
25351;SDS011;13304;48.464;8.712;2023-12-20T14:26:20;5.80;;;1.48;;
25351;SDS011;13304;48.464;8.712;2023-12-20T14:28:46;7.25;;;1.65;;
25351;SDS011;13304;48.464;8.712;2023-12-20T14:31:11;7.85;;;1.20;;
25351;SDS011;13304;48.464;8.712;2023-12-20T14:33:37;4.93;;;1.40;;
25351;SDS011;13304;48.464;8.712;2023-12-20T14:36:04;7.63;;;1.45;;
25351;SDS011;13304;48.464;8.712;2023-12-20T14:38:31;6.35;;;1.50;;
25351;SDS011;13304;48.464;8.712;2023-12-20T14:40:57;12.32;;;2.08;;
25351;SDS011;13304;48.464;8.712;2023-12-20T14:43:22;8.57;;;1.50;;
25351;SDS011;13304;48.464;8.712;2023-12-20T14:45:48;7.20;;;1.95;;
25351;SDS011;13304;48.464;8.712;2023-12-20T14:48:15;6.80;;;1.85;;
25351;SDS011;13304;48.464;8.712;2023-12-20T14:50:41;6.75;;;1.73;;
25351;SDS011;13304;48.464;8.712;2023-12-20T14:53:07;6.95;;;1.50;;
25351;SDS011;13304;48.464;8.712;2023-12-20T14:55:33;9.30;;;1.40;;